createdAt,value
2022-08-01T00:00:27.207Z,24.71
2022-08-01T00:01:28.889Z,24.71
2022-08-01T00:02:32.198Z,24.74
2022-08-01T00:03:34.058Z,24.76
2022-08-01T00:04:35.770Z,24.76
2022-08-01T00:05:37.509Z,24.68
2022-08-01T00:06:39.201Z,24.63
2022-08-01T00:07:41.329Z,24.73
2022-08-01T00:08:43.157Z,24.71
2022-08-01T00:09:44.849Z,24.73
2022-08-01T00:10:46.616Z,24.58
2022-08-01T00:11:48.308Z,24.66
2022-08-01T00:13:01.441Z,24.66
2022-08-01T00:14:03.470Z,24.66
2022-08-01T00:15:06.676Z,24.68
2022-08-01T00:16:08.700Z,24.60
2022-08-01T00:17:10.449Z,24.64
2022-08-01T00:18:12.158Z,24.64
2022-08-01T00:19:13.959Z,24.62
2022-08-01T00:20:15.967Z,24.51
2022-08-01T00:21:18.224Z,24.59
2022-08-01T00:22:19.961Z,24.59
2022-08-01T00:23:21.734Z,24.56
2022-08-01T00:24:24.678Z,24.56
2022-08-01T00:25:33.530Z,24.57
2022-08-01T00:26:35.830Z,24.56
2022-08-01T00:27:38.022Z,24.56
2022-08-01T00:28:39.980Z,24.56
2022-08-01T00:30:12.332Z,24.59
2022-08-01T00:31:03.548Z,24.59
2022-08-01T00:32:06.077Z,24.56
2022-08-01T00:33:07.974Z,24.49
2022-08-01T00:34:09.720Z,24.48
2022-08-01T00:35:11.785Z,24.45
2022-08-01T00:36:13.492Z,24.50
2022-08-01T00:37:16.107Z,24.55
2022-08-01T00:38:18.099Z,24.53
2022-08-01T00:39:19.825Z,24.47
2022-08-01T00:40:21.825Z,24.46
2022-08-01T00:41:23.539Z,24.40
2022-08-01T00:42:25.313Z,24.40
2022-08-01T00:43:27.115Z,24.40
2022-08-01T00:44:28.827Z,24.33
2022-08-01T00:45:30.662Z,24.36
2022-08-01T00:46:33.685Z,24.37
2022-08-01T00:47:35.398Z,24.21
2022-08-01T00:48:37.234Z,24.18
2022-08-01T00:49:39.205Z,24.25
2022-08-01T00:50:41.178Z,24.22
2022-08-01T00:51:43.104Z,24.21
2022-08-01T00:52:51.669Z,24.14
2022-08-01T00:53:54.862Z,24.19
2022-08-01T00:54:56.960Z,24.17
2022-08-01T00:55:58.727Z,24.16
2022-08-01T00:57:00.557Z,24.11
2022-08-01T00:58:05.855Z,24.00
2022-08-01T00:59:09.057Z,24.05
2022-08-01T01:00:11.541Z,23.90
2022-08-01T01:01:14.445Z,23.85
2022-08-01T01:02:17.201Z,23.98
2022-08-01T01:03:19.367Z,23.93
2022-08-01T01:04:21.254Z,23.91
2022-08-01T01:05:23.117Z,23.87
2022-08-01T01:06:33.715Z,23.81
2022-08-01T01:07:56.948Z,23.78
2022-08-01T01:09:20.298Z,23.75
2022-08-01T01:10:55.821Z,23.75
2022-08-01T01:12:09.573Z,23.75
2022-08-01T01:13:48.471Z,23.61
2022-08-01T01:15:04.567Z,23.65
2022-08-01T01:16:11.786Z,23.55
2022-08-01T01:17:17.582Z,23.55
2022-08-01T01:18:38.655Z,23.53
2022-08-01T01:19:47.222Z,23.48
2022-08-01T01:21:46.793Z,23.46
2022-08-01T01:22:54.415Z,23.40
2022-08-01T01:24:17.513Z,23.41
2022-08-01T01:25:34.790Z,23.38
2022-08-01T01:26:45.185Z,23.35
2022-08-01T01:28:10.839Z,23.35
2022-08-01T01:29:17.581Z,23.33
2022-08-01T01:30:19.819Z,23.34
2022-08-01T01:31:24.768Z,23.22
2022-08-01T01:32:49.159Z,23.33
2022-08-01T01:33:52.629Z,23.33
2022-08-01T01:34:56.025Z,23.31
2022-08-01T01:36:02.590Z,23.32
2022-08-01T01:37:08.940Z,23.32
2022-08-01T01:38:18.208Z,23.32
2022-08-01T01:39:23.711Z,23.25
2022-08-01T01:40:27.933Z,23.31
2022-08-01T01:41:31.489Z,23.19
2022-08-01T01:42:34.549Z,23.29
2022-08-01T01:43:37.749Z,23.28
2022-08-01T01:44:40.225Z,23.28
2022-08-01T01:45:43.279Z,23.30
2022-08-01T01:46:46.071Z,23.31
2022-08-01T01:47:49.003Z,23.25
2022-08-01T01:48:52.009Z,23.29
2022-08-01T01:49:56.578Z,23.28
2022-08-01T01:50:58.829Z,23.30
2022-08-01T01:52:03.136Z,23.30
2022-08-01T01:53:06.343Z,23.33
2022-08-01T01:54:18.578Z,23.30
2022-08-01T01:55:22.265Z,23.31
2022-08-01T01:56:25.448Z,23.15
2022-08-01T01:57:28.950Z,23.12
2022-08-01T01:58:34.418Z,23.13
2022-08-01T01:59:38.959Z,23.23
2022-08-01T02:00:43.396Z,23.25
2022-08-01T02:02:08.729Z,23.19
2022-08-01T02:03:13.458Z,23.25
2022-08-01T02:04:17.078Z,23.23
2022-08-01T02:05:19.689Z,23.25
2022-08-01T02:06:22.842Z,23.23
2022-08-01T02:07:27.405Z,23.23
2022-08-01T02:08:32.226Z,23.24
2022-08-01T02:09:36.797Z,23.19
2022-08-01T02:10:40.216Z,23.18
2022-08-01T02:12:05.068Z,23.21
2022-08-01T02:13:07.647Z,23.23
2022-08-01T02:14:11.397Z,23.21
2022-08-01T02:15:15.034Z,23.22
2022-08-01T02:16:18.166Z,23.17
2022-08-01T02:17:21.630Z,23.25
2022-08-01T02:18:23.958Z,23.23
2022-08-01T02:19:26.131Z,23.20
2022-08-01T02:20:31.237Z,23.21
2022-08-01T02:21:48.799Z,23.20
2022-08-01T02:22:55.037Z,23.17
2022-08-01T02:24:06.076Z,23.22
2022-08-01T02:25:28.509Z,23.11
2022-08-01T02:26:31.773Z,23.19
2022-08-01T02:27:45.876Z,23.20
2022-08-01T02:29:08.763Z,23.20
2022-08-01T02:30:13.810Z,23.21
2022-08-01T02:31:20.326Z,23.18
2022-08-01T02:32:28.539Z,23.11
2022-08-01T02:33:38.583Z,23.19
2022-08-01T02:34:42.713Z,23.14
2022-08-01T02:36:30.782Z,23.17
2022-08-01T02:37:12.998Z,23.15
2022-08-01T02:38:15.932Z,23.15
2022-08-01T02:39:21.679Z,23.14
2022-08-01T02:40:24.540Z,23.08
2022-08-01T02:41:28.417Z,23.14
2022-08-01T02:42:31.289Z,23.17
2022-08-01T02:43:35.159Z,23.16
2022-08-01T02:44:40.828Z,23.14
2022-08-01T02:45:46.421Z,23.13
2022-08-01T02:46:56.548Z,23.09
2022-08-01T02:48:10.684Z,23.07
2022-08-01T02:49:14.044Z,23.04
2022-08-01T02:50:17.985Z,23.02
2022-08-01T02:51:22.866Z,23.02
2022-08-01T02:52:27.645Z,23.02
2022-08-01T02:53:44.004Z,22.89
2022-08-01T02:54:48.414Z,22.95
2022-08-01T02:55:52.283Z,22.95
2022-08-01T02:56:57.222Z,22.92
2022-08-01T02:58:02.163Z,22.90
2022-08-01T02:59:15.601Z,22.87
2022-08-01T03:00:18.332Z,22.82
2022-08-01T03:01:22.582Z,22.81
2022-08-01T03:02:29.420Z,22.80
2022-08-01T03:03:31.996Z,22.80
2022-08-01T03:04:39.227Z,22.77
2022-08-01T03:05:43.254Z,22.75
2022-08-01T03:06:45.708Z,22.75
2022-08-01T03:07:48.691Z,22.75
2022-08-01T03:08:52.449Z,22.72
2022-08-01T03:09:54.705Z,22.72
2022-08-01T03:10:58.143Z,22.72
2022-08-01T03:12:03.970Z,22.66
2022-08-01T03:13:09.145Z,22.70
2022-08-01T03:14:13.113Z,22.70
2022-08-01T03:15:16.501Z,22.59
2022-08-01T03:16:19.075Z,22.60
2022-08-01T03:17:22.421Z,22.67
2022-08-01T03:18:27.336Z,22.67
2022-08-01T03:19:30.062Z,22.66
2022-08-01T03:20:33.903Z,22.68
2022-08-01T03:21:36.643Z,22.69
2022-08-01T03:22:40.131Z,22.60
2022-08-01T03:23:43.900Z,22.63
2022-08-01T03:24:51.069Z,22.62
2022-08-01T03:25:54.291Z,22.55
2022-08-01T03:26:58.285Z,22.57
2022-08-01T03:28:04.385Z,22.66
2022-08-01T03:29:15.295Z,22.65
2022-08-01T03:30:17.725Z,22.66
2022-08-01T03:31:19.868Z,22.69
2022-08-01T03:32:23.385Z,22.70
2022-08-01T03:33:25.202Z,22.71
2022-08-01T03:34:28.595Z,22.72
2022-08-01T03:35:34.230Z,22.69
2022-08-01T03:36:52.511Z,22.79
2022-08-01T03:39:21.688Z,22.84
2022-08-01T03:40:29.444Z,22.87
2022-08-01T03:41:38.864Z,22.90
2022-08-01T03:42:46.685Z,22.91
2022-08-01T03:43:55.999Z,22.92
2022-08-01T03:45:13.706Z,22.96
2022-08-01T03:46:21.768Z,23.00
2022-08-01T03:47:32.539Z,23.00
2022-08-01T03:48:40.569Z,23.09
2022-08-01T03:49:48.354Z,23.13
2022-08-01T03:50:53.644Z,23.11
2022-08-01T03:51:56.580Z,23.30
2022-08-01T03:53:01.171Z,23.31
2022-08-01T03:54:05.699Z,23.34
2022-08-01T03:55:08.894Z,23.39
2022-08-01T03:56:11.541Z,23.41
2022-08-01T03:57:34.770Z,23.45
2022-08-01T03:58:39.710Z,23.48
2022-08-01T03:59:42.601Z,23.58
2022-08-01T04:00:44.917Z,23.66
2022-08-01T04:01:48.923Z,23.70
2022-08-01T04:02:51.702Z,23.74
2022-08-01T04:03:53.992Z,23.81
2022-08-01T04:04:56.429Z,23.89
2022-08-01T04:05:58.169Z,23.94
2022-08-01T04:07:05.272Z,24.02
2022-08-01T04:08:07.040Z,24.13
2022-08-01T04:09:13.457Z,24.15
2022-08-01T04:10:15.609Z,24.30
2022-08-01T04:11:17.405Z,24.39
2022-08-01T04:12:19.906Z,24.49
2022-08-01T04:13:21.664Z,24.56
2022-08-01T04:14:23.373Z,24.67
2022-08-01T04:15:25.072Z,24.75
2022-08-01T04:16:26.898Z,24.80
2022-08-01T04:17:28.636Z,24.94
2022-08-01T04:18:30.386Z,25.01
2022-08-01T04:19:32.130Z,25.07
2022-08-01T04:20:33.970Z,25.19
2022-08-01T04:21:38.494Z,25.27
2022-08-01T04:22:41.555Z,25.38
2022-08-01T04:23:45.835Z,25.47
2022-08-01T04:24:54.680Z,25.52
2022-08-01T04:26:00.697Z,25.62
2022-08-01T04:27:05.936Z,25.65
2022-08-01T04:28:17.368Z,25.82
2022-08-01T04:29:21.795Z,25.90
2022-08-01T04:30:30.931Z,26.01
2022-08-01T04:31:34.200Z,26.07
2022-08-01T04:32:39.168Z,26.22
2022-08-01T04:33:46.756Z,26.33
2022-08-01T04:34:50.527Z,26.28
2022-08-01T04:36:01.737Z,26.34
2022-08-01T04:37:08.855Z,26.47
2022-08-01T04:38:13.972Z,26.47
2022-08-01T04:39:17.932Z,26.56
2022-08-01T04:40:23.122Z,26.71
2022-08-01T04:41:25.952Z,26.86
2022-08-01T04:42:30.275Z,26.91
2022-08-01T04:43:35.253Z,27.03
2022-08-01T04:44:37.805Z,27.06
2022-08-01T04:45:40.406Z,27.18
2022-08-01T04:46:42.995Z,27.18
2022-08-01T04:47:46.319Z,27.46
2022-08-01T04:48:49.672Z,27.38
2022-08-01T04:49:51.944Z,27.54
2022-08-01T04:50:53.757Z,27.63
2022-08-01T04:52:01.174Z,27.70
2022-08-01T04:53:04.251Z,27.83
2022-08-01T04:54:08.446Z,27.95
2022-08-01T04:55:11.089Z,27.98
2022-08-01T04:56:14.474Z,28.05
2022-08-01T04:57:16.422Z,28.23
2022-08-01T04:58:19.115Z,28.37
2022-08-01T04:59:39.681Z,28.50
2022-08-01T05:00:41.654Z,28.49
2022-08-01T05:01:43.440Z,28.67
2022-08-01T05:02:45.279Z,28.86
2022-08-01T05:03:46.972Z,28.91
2022-08-01T05:04:48.782Z,28.97
2022-08-01T05:05:50.470Z,29.12
2022-08-01T05:06:52.239Z,29.19
2022-08-01T05:07:53.932Z,29.36
2022-08-01T05:08:55.989Z,29.52
2022-08-01T05:09:57.769Z,29.44
2022-08-01T05:10:59.781Z,29.55
2022-08-01T05:12:03.053Z,29.64
2022-08-01T05:13:04.915Z,29.48
2022-08-01T05:14:07.718Z,29.27
2022-08-01T05:15:15.205Z,29.14
2022-08-01T05:16:18.083Z,29.18
2022-08-01T05:17:19.779Z,29.21
2022-08-01T05:18:27.957Z,29.17
2022-08-01T05:19:33.051Z,29.12
2022-08-01T05:20:34.891Z,29.01
2022-08-01T05:21:36.759Z,28.94
2022-08-01T05:22:39.332Z,28.88
2022-08-01T05:23:43.140Z,29.01
2022-08-01T05:24:45.390Z,29.17
2022-08-01T05:25:56.777Z,29.13
2022-08-01T05:27:00.352Z,29.16
2022-08-01T05:28:02.374Z,29.07
2022-08-01T05:29:05.738Z,29.03
2022-08-01T05:30:11.108Z,28.96
2022-08-01T05:31:12.875Z,29.12
2022-08-01T05:32:14.682Z,29.31
2022-08-01T05:33:16.418Z,29.34
2022-08-01T05:34:18.733Z,29.54
2022-08-01T05:35:20.503Z,29.61
2022-08-01T05:36:22.230Z,29.75
2022-08-01T05:37:23.986Z,30.02
2022-08-01T05:38:25.816Z,30.15
2022-08-01T05:39:27.616Z,30.14
2022-08-01T05:40:29.379Z,30.04
2022-08-01T05:41:31.767Z,30.13
2022-08-01T05:42:33.523Z,30.16
2022-08-01T05:43:35.303Z,30.21
2022-08-01T05:44:36.995Z,30.31
2022-08-01T05:45:38.798Z,30.22
2022-08-01T05:46:40.653Z,30.19
2022-08-01T05:47:42.993Z,30.36
2022-08-01T05:48:44.970Z,30.35
2022-08-01T05:49:46.881Z,30.54
2022-08-01T05:50:48.987Z,30.45
2022-08-01T05:51:50.826Z,30.37
2022-08-01T05:52:52.547Z,30.34
2022-08-01T05:53:55.014Z,30.23
2022-08-01T05:54:56.736Z,30.18
2022-08-01T05:55:58.439Z,30.18
2022-08-01T05:57:02.982Z,30.21
2022-08-01T05:58:04.781Z,30.29
2022-08-01T05:59:06.491Z,30.19
2022-08-01T06:00:09.072Z,30.25
2022-08-01T06:01:11.241Z,30.16
2022-08-01T06:02:12.987Z,29.94
2022-08-01T06:03:15.511Z,30.11
2022-08-01T06:04:17.333Z,30.14
2022-08-01T06:05:19.049Z,30.12
2022-08-01T06:06:25.529Z,30.25
2022-08-01T06:07:27.415Z,30.20
2022-08-01T06:08:29.364Z,30.21
2022-08-01T06:09:31.938Z,30.35
2022-08-01T06:10:33.820Z,30.18
2022-08-01T06:11:35.722Z,30.32
2022-08-01T06:12:38.086Z,30.35
2022-08-01T06:13:44.916Z,30.33
2022-08-01T06:14:50.082Z,30.52
2022-08-01T06:15:51.961Z,30.56
2022-08-01T06:16:53.833Z,30.51
2022-08-01T06:17:55.672Z,30.54
2022-08-01T06:18:57.383Z,30.71
2022-08-01T06:19:59.141Z,30.89
2022-08-01T06:21:00.853Z,30.86
2022-08-01T06:22:02.833Z,30.83
2022-08-01T06:23:12.049Z,31.02
2022-08-01T06:24:26.687Z,30.93
2022-08-01T06:25:28.427Z,30.64
2022-08-01T06:26:30.200Z,30.50
2022-08-01T06:27:31.961Z,30.49
2022-08-01T06:28:33.696Z,30.62
2022-08-01T06:29:35.972Z,30.67
2022-08-01T06:30:37.923Z,30.59
2022-08-01T06:31:39.669Z,30.58
2022-08-01T06:32:41.474Z,30.50
2022-08-01T06:33:43.193Z,30.48
2022-08-01T06:34:44.944Z,30.59
2022-08-01T06:35:46.644Z,30.69
2022-08-01T06:36:48.369Z,30.61
2022-08-01T06:37:50.282Z,30.56
2022-08-01T06:38:52.169Z,30.53
2022-08-01T06:39:54.163Z,30.46
2022-08-01T06:40:56.064Z,30.56
2022-08-01T06:41:57.759Z,30.59
2022-08-01T06:42:59.522Z,30.54
2022-08-01T06:44:03.434Z,30.56
2022-08-01T06:45:11.063Z,30.58
2022-08-01T06:46:12.843Z,30.80
2022-08-01T06:47:14.561Z,30.96
2022-08-01T06:48:16.500Z,31.19
2022-08-01T06:49:18.270Z,31.03
2022-08-01T06:50:20.276Z,31.05
2022-08-01T06:51:21.981Z,30.93
2022-08-01T06:52:26.713Z,30.96
2022-08-01T06:53:28.418Z,31.11
2022-08-01T06:54:30.228Z,31.04
2022-08-01T06:55:32.324Z,30.91
2022-08-01T06:56:36.302Z,30.89
2022-08-01T06:57:38.070Z,30.74
2022-08-01T06:58:39.775Z,30.62
2022-08-01T06:59:41.557Z,30.68
2022-08-01T07:00:57.785Z,30.71
2022-08-01T07:01:59.620Z,30.60
2022-08-01T07:03:01.411Z,30.77
2022-08-01T07:04:04.012Z,30.96
2022-08-01T07:05:06.102Z,31.16
2022-08-01T07:06:07.869Z,31.00
2022-08-01T07:07:09.632Z,31.03
2022-08-01T07:08:11.363Z,31.12
2022-08-01T07:09:14.571Z,31.26
2022-08-01T07:10:17.533Z,31.33
2022-08-01T07:11:19.599Z,31.23
2022-08-01T07:12:21.366Z,31.20
2022-08-01T07:13:26.046Z,31.39
2022-08-01T07:14:45.541Z,31.41
2022-08-01T07:15:48.159Z,31.45
2022-08-01T07:16:50.223Z,31.43
2022-08-01T07:17:51.932Z,31.63
2022-08-01T07:18:56.608Z,31.81
2022-08-01T07:19:58.319Z,31.79
2022-08-01T07:21:00.170Z,31.82
2022-08-01T07:22:01.936Z,31.76
2022-08-01T07:23:05.699Z,31.71
2022-08-01T07:24:12.932Z,31.57
2022-08-01T07:25:15.950Z,31.61
2022-08-01T07:26:18.616Z,31.50
2022-08-01T07:27:25.608Z,31.56
2022-08-01T07:28:28.499Z,31.61
2022-08-01T07:29:30.204Z,31.73
2022-08-01T07:30:32.101Z,31.77
2022-08-01T07:31:33.776Z,31.97
2022-08-01T07:32:36.032Z,32.05
2022-08-01T07:33:48.686Z,31.86
2022-08-01T07:34:51.808Z,31.77
2022-08-01T07:35:53.517Z,31.88
2022-08-01T07:36:55.263Z,31.75
2022-08-01T07:37:57.140Z,32.00
2022-08-01T07:38:59.115Z,32.05
2022-08-01T07:40:05.165Z,32.12
2022-08-01T07:41:07.028Z,32.04
2022-08-01T07:42:08.757Z,32.14
2022-08-01T07:43:10.802Z,32.29
2022-08-01T07:44:12.510Z,32.34
2022-08-01T07:45:15.719Z,32.29
2022-08-01T07:46:17.673Z,32.29
2022-08-01T07:47:25.666Z,32.48
2022-08-01T07:48:28.184Z,32.50
2022-08-01T07:49:30.156Z,32.57
2022-08-01T07:50:34.180Z,32.58
2022-08-01T07:51:36.034Z,32.82
2022-08-01T07:52:37.787Z,32.88
2022-08-01T07:53:39.494Z,32.97
2022-08-01T07:54:41.224Z,33.06
2022-08-01T07:55:43.307Z,33.24
2022-08-01T07:56:47.822Z,33.28
2022-08-01T07:57:49.698Z,33.26
2022-08-01T07:58:51.668Z,33.36
2022-08-01T07:59:53.440Z,33.57
2022-08-01T08:00:55.225Z,33.72
2022-08-01T08:01:57.106Z,33.55
2022-08-01T08:03:00.595Z,33.56
2022-08-01T08:04:02.393Z,33.40
2022-08-01T08:05:05.011Z,33.54
2022-08-01T08:06:07.447Z,33.47
2022-08-01T08:07:09.613Z,33.35
2022-08-01T08:08:12.600Z,33.35
2022-08-01T08:09:15.222Z,33.46
2022-08-01T08:10:17.138Z,33.48
2022-08-01T08:11:18.842Z,33.51
2022-08-01T08:12:28.417Z,33.45
2022-08-01T08:13:30.808Z,33.37
2022-08-01T08:14:33.356Z,33.48
2022-08-01T08:15:35.103Z,33.43
2022-08-01T08:16:36.812Z,33.55
2022-08-01T08:17:38.609Z,33.51
2022-08-01T08:18:40.374Z,33.30
2022-08-01T08:19:42.116Z,33.39
2022-08-01T08:20:44.238Z,33.57
2022-08-01T08:21:48.849Z,33.58
2022-08-01T08:22:50.586Z,33.34
2022-08-01T08:24:10.630Z,33.54
2022-08-01T08:25:14.345Z,33.75
2022-08-01T08:26:16.103Z,33.76
2022-08-01T08:27:17.871Z,33.79
2022-08-01T08:28:24.152Z,33.70
2022-08-01T08:29:30.923Z,33.63
2022-08-01T08:30:32.728Z,33.67
2022-08-01T08:31:51.904Z,33.52
2022-08-01T08:32:55.249Z,33.67
2022-08-01T08:33:56.999Z,33.71
2022-08-01T08:34:58.702Z,33.58
2022-08-01T08:36:00.465Z,33.40
2022-08-01T08:37:03.343Z,33.56
2022-08-01T08:38:05.218Z,33.53
2022-08-01T08:39:09.440Z,33.48
2022-08-01T08:40:11.830Z,33.67
2022-08-01T08:41:20.985Z,33.81
2022-08-01T08:42:23.846Z,33.94
2022-08-01T08:43:27.024Z,34.02
2022-08-01T08:44:29.390Z,33.95
2022-08-01T08:45:59.880Z,33.92
2022-08-01T08:46:54.439Z,33.96
2022-08-01T08:47:57.342Z,34.03
2022-08-01T08:48:59.752Z,34.00
2022-08-01T08:50:05.016Z,34.02
2022-08-01T08:51:09.772Z,34.16
2022-08-01T08:52:12.639Z,34.27
2022-08-01T08:53:18.589Z,34.27
2022-08-01T08:54:31.000Z,34.21
2022-08-01T08:55:33.689Z,34.11
2022-08-01T08:56:56.492Z,34.03
2022-08-01T08:58:00.609Z,34.05
2022-08-01T08:59:03.978Z,34.02
2022-08-01T09:00:06.503Z,34.00
2022-08-01T09:01:11.855Z,34.04
2022-08-01T09:02:14.177Z,33.98
2022-08-01T09:03:16.295Z,33.99
2022-08-01T09:04:18.364Z,33.97
2022-08-01T09:05:38.821Z,33.74
2022-08-01T09:06:41.745Z,33.90
2022-08-01T09:07:43.627Z,33.96
2022-08-01T09:08:45.406Z,33.93
2022-08-01T09:09:49.389Z,33.82
2022-08-01T09:10:51.673Z,33.78
2022-08-01T09:11:57.414Z,33.84
2022-08-01T09:13:14.162Z,34.00
2022-08-01T09:14:23.561Z,34.14
2022-08-01T09:15:46.480Z,34.21
2022-08-01T09:16:49.012Z,34.22
2022-08-01T09:17:51.233Z,34.51
2022-08-01T09:18:53.407Z,34.65
2022-08-01T09:19:57.743Z,34.63
2022-08-01T09:21:07.057Z,34.75
2022-08-01T09:22:19.283Z,34.62
2022-08-01T09:23:53.377Z,34.48
2022-08-01T09:24:59.402Z,34.48
2022-08-01T09:26:01.167Z,34.47
2022-08-01T09:27:17.952Z,34.57
2022-08-01T09:28:29.305Z,34.46
2022-08-01T09:29:37.896Z,34.31
2022-08-01T09:30:40.935Z,34.54
2022-08-01T09:31:47.396Z,34.57
2022-08-01T09:33:11.050Z,34.38
2022-08-01T09:34:28.475Z,34.39
2022-08-01T09:35:36.261Z,34.37
2022-08-01T09:36:49.567Z,34.44
2022-08-01T09:37:51.312Z,34.48
2022-08-01T09:38:54.879Z,34.60
2022-08-01T09:39:58.946Z,34.71
2022-08-01T09:41:02.030Z,34.67
2022-08-01T09:42:21.289Z,34.53
2022-08-01T09:43:32.798Z,34.36
2022-08-01T09:44:54.234Z,34.31
2022-08-01T09:45:57.850Z,34.32
2022-08-01T09:47:00.026Z,34.25
2022-08-01T09:48:10.616Z,34.17
2022-08-01T09:49:12.897Z,34.13
2022-08-01T09:50:14.902Z,34.12
2022-08-01T09:51:59.645Z,34.23
2022-08-01T09:52:57.195Z,34.39
2022-08-01T09:54:00.332Z,34.39
2022-08-01T09:55:08.038Z,34.51
2022-08-01T09:56:11.951Z,34.52
2022-08-01T09:57:13.725Z,34.52
2022-08-01T09:58:15.435Z,34.46
2022-08-01T09:59:17.485Z,34.48
2022-08-01T10:00:43.750Z,34.49
2022-08-01T10:01:50.419Z,34.67
2022-08-01T10:02:52.161Z,34.48
2022-08-01T10:04:25.383Z,34.47
2022-08-01T10:05:36.957Z,34.48
2022-08-01T10:06:45.087Z,34.56
2022-08-01T10:08:03.135Z,34.64
2022-08-01T10:09:10.502Z,34.67
2022-08-01T10:10:15.220Z,34.76
2022-08-01T10:11:18.080Z,34.60
2022-08-01T10:12:22.702Z,34.49
2022-08-01T10:13:24.637Z,34.34
2022-08-01T10:14:40.988Z,34.45
2022-08-01T10:15:43.412Z,34.45
2022-08-01T10:16:53.678Z,34.61
2022-08-01T10:18:02.133Z,34.67
2022-08-01T10:19:14.864Z,34.82
2022-08-01T10:20:29.649Z,34.89
2022-08-01T10:21:47.667Z,34.93
2022-08-01T10:22:58.992Z,34.97
2022-08-01T10:24:05.138Z,35.04
2022-08-01T10:25:09.841Z,35.16
2022-08-01T10:26:17.064Z,35.31
2022-08-01T10:27:24.216Z,35.44
2022-08-01T10:28:40.387Z,35.15
2022-08-01T10:30:05.505Z,35.02
2022-08-01T10:31:13.147Z,34.94
2022-08-01T10:32:17.307Z,34.96
2022-08-01T10:33:20.040Z,34.84
2022-08-01T10:34:44.981Z,35.04
2022-08-01T10:35:48.244Z,35.07
2022-08-01T10:36:50.214Z,35.05
2022-08-01T10:37:57.612Z,35.07
2022-08-01T10:38:59.758Z,35.17
2022-08-01T10:40:28.763Z,35.32
2022-08-01T10:41:25.825Z,35.26
2022-08-01T10:42:29.476Z,35.10
2022-08-01T10:43:31.791Z,35.22
2022-08-01T10:44:35.065Z,35.42
2022-08-01T10:45:37.072Z,35.53
2022-08-01T10:46:40.556Z,35.37
2022-08-01T10:48:15.399Z,35.37
2022-08-01T10:49:26.723Z,35.51
2022-08-01T10:50:49.518Z,35.52
2022-08-01T10:51:54.827Z,35.71
2022-08-01T10:53:16.536Z,35.69
2022-08-01T10:54:28.111Z,35.89
2022-08-01T10:55:29.882Z,36.03
2022-08-01T10:56:51.475Z,36.13
2022-08-01T10:57:55.117Z,36.17
2022-08-01T10:59:06.220Z,36.17
2022-08-01T11:00:22.813Z,36.06
2022-08-01T11:01:31.341Z,35.73
2022-08-01T11:02:41.807Z,35.66
2022-08-01T11:04:01.151Z,35.62
2022-08-01T11:05:14.226Z,35.72
2022-08-01T11:06:24.651Z,35.96
2022-08-01T11:07:45.026Z,36.09
2022-08-01T11:08:53.803Z,36.19
2022-08-01T11:10:37.417Z,35.97
2022-08-01T11:12:01.767Z,35.72
2022-08-01T11:13:12.392Z,35.76
2022-08-01T11:14:15.416Z,35.75
2022-08-01T11:15:29.710Z,35.80
2022-08-01T11:16:34.441Z,35.91
2022-08-01T11:17:41.817Z,35.93
2022-08-01T11:18:51.864Z,35.92
2022-08-01T11:20:09.454Z,36.03
2022-08-01T11:21:58.558Z,36.20
2022-08-01T11:22:32.977Z,36.16
2022-08-01T11:23:48.750Z,35.93
2022-08-01T11:24:52.332Z,35.68
2022-08-01T11:26:05.786Z,35.48
2022-08-01T11:27:18.314Z,35.37
2022-08-01T11:28:34.632Z,35.28
2022-08-01T11:29:37.210Z,35.46
2022-08-01T11:30:38.966Z,35.61
2022-08-01T11:31:41.586Z,35.61
2022-08-01T11:33:11.300Z,35.67
2022-08-01T11:34:13.530Z,35.85
2022-08-01T11:35:18.465Z,35.91
2022-08-01T11:36:42.810Z,36.04
2022-08-01T11:37:43.685Z,36.16
2022-08-01T11:38:58.231Z,36.23
2022-08-01T11:40:25.083Z,36.17
2022-08-01T11:41:37.098Z,36.18
2022-08-01T11:42:40.884Z,36.35
2022-08-01T11:43:59.326Z,36.26
2022-08-01T11:45:01.162Z,36.18
2022-08-01T11:46:03.292Z,36.21
2022-08-01T11:47:11.579Z,36.34
2022-08-01T11:48:27.666Z,36.40
2022-08-01T11:49:51.791Z,36.50
2022-08-01T11:50:55.464Z,36.34
2022-08-01T11:52:07.265Z,36.28
2022-08-01T11:53:11.336Z,36.24
2022-08-01T11:54:14.597Z,36.34
2022-08-01T11:55:16.560Z,36.27
2022-08-01T11:56:18.686Z,36.21
2022-08-01T11:57:23.315Z,36.15
2022-08-01T11:58:30.629Z,36.36
2022-08-01T11:59:41.372Z,36.49
2022-08-01T12:01:00.703Z,36.40
2022-08-01T12:02:03.255Z,36.52
2022-08-01T12:03:08.470Z,36.51
2022-08-01T12:04:10.229Z,36.51
2022-08-01T12:05:24.779Z,36.48
2022-08-01T12:06:29.684Z,36.47
2022-08-01T12:07:33.162Z,36.61
2022-08-01T12:08:35.951Z,36.62
2022-08-01T12:09:37.719Z,36.74
2022-08-01T12:10:49.490Z,36.66
2022-08-01T12:11:51.821Z,36.71
2022-08-01T12:13:01.350Z,36.40
2022-08-01T12:14:03.570Z,36.31
2022-08-01T12:15:10.022Z,36.30
2022-08-01T12:16:12.887Z,36.21
2022-08-01T12:17:14.733Z,36.07
2022-08-01T12:18:16.922Z,36.04
2022-08-01T12:19:24.234Z,36.05
2022-08-01T12:20:30.343Z,36.07
2022-08-01T12:21:32.397Z,36.05
2022-08-01T12:22:34.397Z,36.18
2022-08-01T12:23:36.115Z,36.30
2022-08-01T12:24:39.954Z,36.31
2022-08-01T12:25:42.126Z,36.35
2022-08-01T12:26:43.914Z,36.31
2022-08-01T12:27:47.112Z,36.39
2022-08-01T12:28:48.826Z,36.40
2022-08-01T12:29:50.879Z,36.41
2022-08-01T12:30:52.766Z,36.33
2022-08-01T12:31:54.452Z,36.19
2022-08-01T12:32:56.197Z,36.09
2022-08-01T12:33:57.941Z,35.91
2022-08-01T12:35:18.291Z,35.85
2022-08-01T12:36:29.725Z,35.73
2022-08-01T12:37:31.791Z,35.63
2022-08-01T12:38:35.144Z,35.37
2022-08-01T12:39:40.222Z,35.39
2022-08-01T12:40:45.547Z,35.33
2022-08-01T12:41:47.650Z,35.39
2022-08-01T12:42:51.979Z,35.47
2022-08-01T12:43:53.819Z,35.61
2022-08-01T12:44:56.435Z,35.76
2022-08-01T12:46:00.978Z,35.70
2022-08-01T12:47:04.985Z,35.66
2022-08-01T12:48:13.694Z,35.73
2022-08-01T12:49:15.830Z,35.81
2022-08-01T12:50:21.159Z,35.86
2022-08-01T12:51:22.934Z,35.83
2022-08-01T12:52:26.612Z,35.95
2022-08-01T12:53:41.102Z,35.84
2022-08-01T12:55:03.134Z,35.92
2022-08-01T12:56:08.915Z,35.87
2022-08-01T12:57:24.128Z,36.03
2022-08-01T12:58:32.447Z,36.13
2022-08-01T12:59:34.273Z,36.21
2022-08-01T13:00:37.688Z,36.21
2022-08-01T13:01:41.319Z,36.20
2022-08-01T13:02:43.979Z,36.05
2022-08-01T13:04:00.287Z,35.93
2022-08-01T13:05:02.906Z,35.95
2022-08-01T13:06:16.621Z,35.92
2022-08-01T13:07:19.147Z,35.94
2022-08-01T13:08:32.292Z,35.90
2022-08-01T13:09:34.052Z,35.99
2022-08-01T13:10:35.833Z,36.00
2022-08-01T13:11:37.705Z,35.87
2022-08-01T13:12:51.616Z,35.97
2022-08-01T13:13:53.840Z,35.94
2022-08-01T13:14:55.539Z,36.10
2022-08-01T13:16:12.211Z,36.22
2022-08-01T13:17:34.431Z,36.34
2022-08-01T13:18:36.913Z,36.41
2022-08-01T13:19:46.231Z,36.36
2022-08-01T13:20:52.246Z,36.19
2022-08-01T13:21:56.888Z,36.23
2022-08-01T13:23:15.309Z,36.16
2022-08-01T13:24:28.671Z,35.95
2022-08-01T13:25:30.405Z,35.82
2022-08-01T13:26:40.230Z,35.86
2022-08-01T13:27:53.556Z,35.84
2022-08-01T13:29:09.636Z,35.72
2022-08-01T13:30:16.228Z,35.65
2022-08-01T13:31:18.007Z,35.59
2022-08-01T13:32:28.641Z,35.67
2022-08-01T13:33:50.366Z,35.74
2022-08-01T13:35:08.134Z,35.61
2022-08-01T13:36:10.839Z,35.57
2022-08-01T13:37:12.608Z,35.64
2022-08-01T13:38:14.827Z,35.53
2022-08-01T13:39:35.762Z,35.54
2022-08-01T13:40:37.351Z,35.48
2022-08-01T13:41:39.304Z,35.45
2022-08-01T13:42:41.114Z,35.06
2022-08-01T13:43:58.199Z,35.16
2022-08-01T13:45:02.939Z,35.14
2022-08-01T13:46:05.537Z,35.23
2022-08-01T13:47:15.865Z,35.24
2022-08-01T13:48:19.075Z,35.41
2022-08-01T13:49:22.810Z,35.37
2022-08-01T13:50:24.803Z,35.34
2022-08-01T13:51:26.632Z,35.37
2022-08-01T13:52:28.387Z,35.44
2022-08-01T13:53:30.284Z,35.57
2022-08-01T13:54:32.789Z,35.66
2022-08-01T13:55:35.463Z,35.79
2022-08-01T13:56:37.437Z,35.77
2022-08-01T13:57:39.213Z,35.64
2022-08-01T13:58:40.969Z,35.60
2022-08-01T13:59:42.679Z,35.52
2022-08-01T14:00:44.490Z,35.49
2022-08-01T14:01:46.485Z,35.34
2022-08-01T14:02:48.404Z,35.21
2022-08-01T14:03:50.564Z,35.06
2022-08-01T14:04:52.342Z,35.08
2022-08-01T14:05:58.836Z,35.05
2022-08-01T14:07:04.235Z,35.16
2022-08-01T14:08:09.845Z,35.04
2022-08-01T14:09:18.109Z,35.02
2022-08-01T14:10:25.826Z,34.97